Time,TemperatureF,DewpointF,PressureIn,WindDirection,WindDirectionDegrees,WindSpeedMPH,WindSpeedGustMPH,Humidity,HourlyPrecipIn,Conditions,Clouds,dailyrainin,SoftwareType,DateUTC
2013-11-11 00:00:00,59.2,28.6,30.03,NNW,338,0.0,0.0,31,0.00,,---,0.00,VWS V14.01,2013-11-11 07:00:00,
2013-11-11 00:05:00,59.0,29.2,30.03,NNW,338,0.0,0.0,32,0.00,,---,0.00,VWS V14.01,2013-11-11 07:05:00,
2013-11-11 00:10:00,58.8,29.0,30.03,North,0,2.0,2.0,32,0.00,,---,0.00,VWS V14.01,2013-11-11 07:10:00,
2013-11-11 00:15:00,59.0,30.7,30.03,NNW,338,2.2,2.5,34,0.00,,---,0.00,VWS V14.01,2013-11-11 07:15:00,
2013-11-11 00:20:00,59.2,30.9,30.03,North,0,1.1,1.1,34,0.00,,---,0.00,VWS V14.01,2013-11-11 07:20:00,
2013-11-11 00:25:00,59.2,30.9,30.03,North,0,1.1,1.1,34,0.00,,---,0.00,VWS V14.01,2013-11-11 07:25:00,
2013-11-11 00:30:00,59.2,30.9,30.03,NNW,338,1.3,1.3,34,0.00,,---,0.00,VWS V14.01,2013-11-11 07:30:00,
2013-11-11 00:36:00,59.2,30.9,30.03,NNW,338,1.6,1.6,34,0.00,,---,0.00,VWS V14.01,2013-11-11 07:36:00,
2013-11-11 00:41:00,59.0,30.7,30.03,North,0,0.0,0.9,34,0.00,,---,0.00,VWS V14.01,2013-11-11 07:41:00,
2013-11-11 00:46:00,59.0,30.7,30.03,NNW,338,1.3,1.3,34,0.00,,---,0.00,VWS V14.01,2013-11-11 07:46:00,
2013-11-11 00:51:00,58.8,30.5,30.03,NNW,338,0.0,0.0,34,0.00,,---,0.00,VWS V14.01,2013-11-11 07:51:00,
2013-11-11 00:56:00,58.6,30.4,30.03,NNW,338,0.0,0.0,34,0.00,,---,0.00,VWS V14.01,2013-11-11 07:56:00,
2013-11-11 01:01:00,58.5,30.2,30.03,NNW,338,0.0,0.0,34,0.00,,---,0.00,VWS V14.01,2013-11-11 08:01:00,
2013-11-11 01:06:00,58.5,30.2,30.03,NNW,338,0.0,0.0,34,0.00,,---,0.00,VWS V14.01,2013-11-11 08:06:00,
2013-11-11 01:11:00,58.8,31.2,30.03,NNW,338,0.0,0.0,35,0.00,,---,0.00,VWS V14.01,2013-11-11 08:11:00,
2013-11-11 01:16:00,58.6,30.4,30.03,NNW,338,0.0,0.0,34,0.00,,---,0.00,VWS V14.01,2013-11-11 08:16:00,
2013-11-11 01:21:00,58.6,31.1,30.03,NNW,338,1.6,1.6,35,0.00,,---,0.00,VWS V14.01,2013-11-11 08:21:00,
2013-11-11 01:27:00,58.6,31.1,30.03,NNW,338,1.3,1.3,35,0.00,,---,0.00,VWS V14.01,2013-11-11 08:27:00,
2013-11-11 01:32:00,58.6,31.1,30.03,NNW,338,1.3,1.3,35,0.00,,---,0.00,VWS V14.01,2013-11-11 08:32:00,
2013-11-11 01:37:00,58.8,31.2,30.03,NNW,338,0.9,1.3,35,0.00,,---,0.00,VWS V14.01,2013-11-11 08:37:00,
2013-11-11 01:42:00,58.6,30.4,30.03,NNW,338,1.6,1.6,34,0.00,,---,0.00,VWS V14.01,2013-11-11 08:42:00,
2013-11-11 01:47:00,58.6,30.4,30.03,NNW,338,2.2,2.2,34,0.00,,---,0.00,VWS V14.01,2013-11-11 08:47:00,
2013-11-11 01:52:00,58.6,30.4,30.03,North,0,2.7,2.7,34,0.00,,---,0.00,VWS V14.01,2013-11-11 08:52:00,
2013-11-11 01:57:00,58.8,30.5,30.03,NNW,338,2.2,2.5,34,0.00,,---,0.00,VWS V14.01,2013-11-11 08:57:00,
2013-11-11 02:02:00,58.8,30.5,30.03,North,0,2.0,2.0,34,0.00,,---,0.00,VWS V14.01,2013-11-11 09:02:00,
2013-11-11 02:07:00,58.8,30.5,30.03,NNW,338,2.5,2.5,34,0.00,,---,0.00,VWS V14.01,2013-11-11 09:07:00,
2013-11-11 02:12:00,59.0,30.7,30.03,NNW,338,1.6,1.6,34,0.00,,---,0.00,VWS V14.01,2013-11-11 09:12:00,
2013-11-11 02:18:00,59.2,30.9,30.03,NNW,338,2.0,2.0,34,0.00,,---,0.00,VWS V14.01,2013-11-11 09:18:00,
2013-11-11 02:23:00,59.2,30.9,30.03,NNW,338,1.6,1.6,34,0.00,,---,0.00,VWS V14.01,2013-11-11 09:23:00,
2013-11-11 02:28:00,59.2,30.9,30.03,NNW,338,1.3,1.3,34,0.00,,---,0.00,VWS V14.01,2013-11-11 09:28:00,
2013-11-11 02:33:00,59.4,31.0,30.03,NNW,338,1.1,1.6,34,0.00,,---,0.00,VWS V14.01,2013-11-11 09:33:00,
2013-11-11 02:38:00,59.4,31.0,30.00,NNW,338,1.1,1.6,34,0.00,,---,0.00,VWS V14.01,2013-11-11 09:38:00,
2013-11-11 02:43:00,59.0,30.7,30.00,NNW,338,1.1,1.3,34,0.00,,---,0.00,VWS V14.01,2013-11-11 09:43:00,
2013-11-11 02:48:00,59.0,30.7,30.00,NNW,338,0.0,0.0,34,0.00,,---,0.00,VWS V14.01,2013-11-11 09:48:00,
2013-11-11 02:53:00,58.8,31.2,30.00,NNW,338,1.6,1.6,35,0.00,,---,0.00,VWS V14.01,2013-11-11 09:53:00,
2013-11-11 02:58:00,58.8,31.2,30.00,NNW,338,1.6,1.6,35,0.00,,---,0.00,VWS V14.01,2013-11-11 09:58:00,
2013-11-11 03:04:00,58.8,31.2,30.00,NNW,338,1.3,1.3,35,0.00,,---,0.00,VWS V14.01,2013-11-11 10:04:00,
2013-11-11 03:09:00,58.6,31.1,30.00,North,0,1.1,1.6,35,0.00,,---,0.00,VWS V14.01,2013-11-11 10:09:00,
2013-11-11 03:14:00,58.5,30.9,30.00,North,0,0.9,0.9,35,0.00,,---,0.00,VWS V14.01,2013-11-11 10:14:00,
2013-11-11 03:19:00,58.3,30.8,30.00,NNW,338,0.0,0.0,35,0.00,,---,0.00,VWS V14.01,2013-11-11 10:19:00,
2013-11-11 03:24:00,58.1,29.9,30.00,NNW,338,0.0,0.0,34,0.00,,---,0.00,VWS V14.01,2013-11-11 10:24:00,
2013-11-11 03:29:00,57.6,29.4,30.00,NNW,338,0.0,0.0,34,0.00,,---,0.00,VWS V14.01,2013-11-11 10:29:00,
2013-11-11 03:34:00,57.2,29.1,30.00,NNW,338,0.0,0.0,34,0.00,,---,0.00,VWS V14.01,2013-11-11 10:34:00,
2013-11-11 03:39:00,56.7,29.3,30.00,NNW,338,0.0,0.0,35,0.00,,---,0.00,VWS V14.01,2013-11-11 10:39:00,
2013-11-11 03:44:00,56.5,29.2,30.00,NNW,338,0.0,0.0,35,0.00,,---,0.00,VWS V14.01,2013-11-11 10:44:00,
2013-11-11 03:50:00,56.7,29.3,30.00,NNW,338,1.3,1.3,35,0.00,,---,0.00,VWS V14.01,2013-11-11 10:50:00,
2013-11-11 03:55:00,57.2,29.8,30.00,NNW,338,1.6,1.6,35,0.00,,---,0.00,VWS V14.01,2013-11-11 10:55:00,
2013-11-11 04:00:00,57.2,29.8,30.00,North,0,1.1,1.1,35,0.00,,---,0.00,VWS V14.01,2013-11-11 11:00:00,
2013-11-11 04:05:00,57.0,29.7,30.00,North,0,0.0,0.0,35,0.00,,---,0.00,VWS V14.01,2013-11-11 11:05:00,
2013-11-11 04:10:00,56.7,29.3,30.00,North,0,0.0,0.0,35,0.00,,---,0.00,VWS V14.01,2013-11-11 11:10:00,
2013-11-11 04:15:00,56.3,29.7,30.00,North,0,2.0,2.0,36,0.00,,---,0.00,VWS V14.01,2013-11-11 11:15:00,
2013-11-11 04:20:00,56.5,29.9,30.00,NNE,22,1.1,1.1,36,0.00,,---,0.00,VWS V14.01,2013-11-11 11:20:00,
2013-11-11 04:25:00,56.5,29.9,30.00,NNE,22,1.6,1.6,36,0.00,,---,0.00,VWS V14.01,2013-11-11 11:25:00,
2013-11-11 04:30:00,56.3,29.0,30.00,ESE,112,0.9,1.6,35,0.00,,---,0.00,VWS V14.01,2013-11-11 11:30:00,
2013-11-11 04:35:00,55.9,28.7,30.00,East,90,0.0,0.0,35,0.00,,---,0.00,VWS V14.01,2013-11-11 11:35:00,
2013-11-11 04:40:00,55.6,28.4,30.00,NE,45,0.0,0.9,35,0.00,,---,0.00,VWS V14.01,2013-11-11 11:40:00,
2013-11-11 04:45:00,55.2,28.8,30.00,NE,45,1.1,1.1,36,0.00,,---,0.00,VWS V14.01,2013-11-11 11:45:00,
2013-11-11 04:50:00,55.0,28.6,30.00,NW,315,0.0,0.0,36,0.00,,---,0.00,VWS V14.01,2013-11-11 11:50:00,
2013-11-11 04:56:00,54.7,28.3,30.00,ESE,112,0.0,0.0,36,0.00,,---,0.00,VWS V14.01,2013-11-11 11:56:00,
2013-11-11 05:01:00,54.5,28.1,30.00,ESE,112,1.1,1.1,36,0.00,,---,0.00,VWS V14.01,2013-11-11 12:01:00,
2013-11-11 05:06:00,54.3,28.0,30.00,North,0,0.0,0.0,36,0.00,,---,0.00,VWS V14.01,2013-11-11 12:06:00,
2013-11-11 05:11:00,54.1,27.8,30.00,ESE,112,0.0,0.9,36,0.00,,---,0.00,VWS V14.01,2013-11-11 12:11:00,
2013-11-11 05:16:00,54.1,27.8,30.00,SW,225,0.0,0.0,36,0.00,,---,0.00,VWS V14.01,2013-11-11 12:16:00,
2013-11-11 05:21:00,54.1,27.8,30.03,North,0,2.0,2.0,36,0.00,,---,0.00,VWS V14.01,2013-11-11 12:21:00,
2013-11-11 05:26:00,54.1,27.8,30.03,North,0,0.0,0.0,36,0.00,,---,0.00,VWS V14.01,2013-11-11 12:26:00,
2013-11-11 05:31:00,54.0,27.6,30.03,North,0,0.9,1.1,36,0.00,,---,0.00,VWS V14.01,2013-11-11 12:31:00,
2013-11-11 05:36:00,54.0,28.3,30.03,NE,45,2.0,2.0,37,0.00,,---,0.00,VWS V14.01,2013-11-11 12:36:00,
2013-11-11 05:41:00,54.0,28.3,30.03,North,0,1.1,1.3,37,0.00,,---,0.00,VWS V14.01,2013-11-11 12:41:00,
2013-11-11 05:46:00,54.1,28.5,30.03,NNE,22,2.2,2.2,37,0.00,,---,0.00,VWS V14.01,2013-11-11 12:46:00,
2013-11-11 05:51:00,54.1,28.5,30.03,NNE,22,1.1,1.3,37,0.00,,---,0.00,VWS V14.01,2013-11-11 12:51:00,
2013-11-11 05:56:00,54.0,28.3,30.03,NE,45,0.0,1.3,37,0.00,,---,0.00,VWS V14.01,2013-11-11 12:56:00,
2013-11-11 06:02:00,53.4,27.8,30.03,East,90,0.0,0.0,37,0.00,,---,0.00,VWS V14.01,2013-11-11 13:02:00,
2013-11-11 06:07:00,53.1,27.5,30.03,East,90,1.6,1.6,37,0.00,,---,0.00,VWS V14.01,2013-11-11 13:07:00,
2013-11-11 06:12:00,53.1,28.1,30.03,ENE,68,0.0,1.1,38,0.00,,---,0.00,VWS V14.01,2013-11-11 13:12:00,
2013-11-11 06:17:00,53.4,28.5,30.03,NNE,22,1.3,1.3,38,0.00,,---,0.00,VWS V14.01,2013-11-11 13:17:00,
2013-11-11 06:22:00,53.8,28.8,30.03,NNW,338,2.0,2.0,38,0.00,,---,0.00,VWS V14.01,2013-11-11 13:22:00,
2013-11-11 06:27:00,54.0,29.0,30.03,NNW,338,2.2,2.2,38,0.00,,---,0.00,VWS V14.01,2013-11-11 13:27:00,
2013-11-11 06:32:00,54.1,29.1,30.03,NW,315,3.6,3.6,38,0.00,,---,0.00,VWS V14.01,2013-11-11 13:32:00,
2013-11-11 06:37:00,54.3,29.3,30.03,North,0,2.2,2.7,38,0.00,,---,0.00,VWS V14.01,2013-11-11 13:37:00,
2013-11-11 06:42:00,54.3,28.6,30.03,North,0,2.9,2.9,37,0.00,,---,0.00,VWS V14.01,2013-11-11 13:42:00,
2013-11-11 06:47:00,54.5,28.8,30.03,North,0,3.1,3.1,37,0.00,,---,0.00,VWS V14.01,2013-11-11 13:47:00,
2013-11-11 06:52:00,54.5,28.8,30.03,North,0,2.5,2.5,37,0.00,,---,0.00,VWS V14.01,2013-11-11 13:52:00,
2013-11-11 06:57:00,54.5,28.8,30.03,North,0,2.0,2.0,37,0.00,,---,0.00,VWS V14.01,2013-11-11 13:57:00,
2013-11-11 07:03:00,54.1,28.5,30.03,NNW,338,0.0,0.0,37,0.00,,---,0.00,VWS V14.01,2013-11-11 14:03:00,
2013-11-11 07:08:00,54.0,29.0,30.03,NW,315,1.3,1.3,38,0.00,,---,0.00,VWS V14.01,2013-11-11 14:08:00,
2013-11-11 07:13:00,54.1,29.1,30.03,North,0,1.3,1.3,38,0.00,,---,0.00,VWS V14.01,2013-11-11 14:13:00,
2013-11-11 07:18:00,54.1,29.1,30.03,NNW,338,0.0,0.9,38,0.00,,---,0.00,VWS V14.01,2013-11-11 14:18:00,
2013-11-11 07:23:00,54.1,29.1,30.03,North,0,2.5,2.5,38,0.00,,---,0.00,VWS V14.01,2013-11-11 14:23:00,
2013-11-11 07:28:00,54.1,29.1,30.03,North,0,1.1,1.1,38,0.00,,---,0.00,VWS V14.01,2013-11-11 14:28:00,
2013-11-11 07:33:00,54.5,29.4,30.03,SSW,202,0.0,0.0,38,0.00,,---,0.00,VWS V14.01,2013-11-11 14:33:00,
2013-11-11 07:38:00,55.0,29.9,30.03,ESE,112,1.3,1.3,38,0.00,,---,0.00,VWS V14.01,2013-11-11 14:38:00,
2013-11-11 07:43:00,55.4,29.6,30.03,ENE,68,0.9,1.1,37,0.00,,---,0.00,VWS V14.01,2013-11-11 14:43:00,
2013-11-11 07:48:00,56.3,30.4,30.03,North,0,1.6,1.6,37,0.00,,---,0.00,VWS V14.01,2013-11-11 14:48:00,
2013-11-11 07:53:00,56.7,30.7,30.03,NNE,22,1.1,2.0,37,0.00,,---,0.00,VWS V14.01,2013-11-11 14:53:00,
2013-11-11 07:58:00,57.6,31.5,30.03,NNE,22,3.1,3.1,37,0.00,,---,0.00,VWS V14.01,2013-11-11 14:58:00,
2013-11-11 08:03:00,58.3,32.2,30.03,ENE,68,3.8,3.8,37,0.00,,---,0.00,VWS V14.01,2013-11-11 15:03:00,
2013-11-11 08:09:00,59.2,32.3,30.03,East,90,6.0,6.0,36,0.00,,---,0.00,VWS V14.01,2013-11-11 15:09:00,
2013-11-11 08:14:00,60.1,33.1,30.03,ENE,68,3.1,3.1,36,0.00,,---,0.00,VWS V14.01,2013-11-11 15:14:00,
2013-11-11 08:19:00,61.0,33.2,30.03,East,90,4.0,4.0,35,0.00,,---,0.00,VWS V14.01,2013-11-11 15:19:00,
2013-11-11 08:24:00,62.1,34.1,30.03,ENE,68,2.7,4.0,35,0.00,,---,0.00,VWS V14.01,2013-11-11 15:24:00,
2013-11-11 08:29:00,63.0,34.9,30.03,ENE,68,2.9,2.9,35,0.00,,---,0.00,VWS V14.01,2013-11-11 15:29:00,
2013-11-11 08:34:00,63.5,35.4,30.03,ENE,68,4.5,4.5,35,0.00,,---,0.00,VWS V14.01,2013-11-11 15:34:00,
2013-11-11 08:39:00,63.9,35.0,30.03,ENE,68,3.6,3.6,34,0.00,,---,0.00,VWS V14.01,2013-11-11 15:39:00,
2013-11-11 08:44:00,65.5,36.4,30.03,ESE,112,3.1,3.1,34,0.00,,---,0.00,VWS V14.01,2013-11-11 15:44:00,
2013-11-11 08:49:00,66.6,36.6,30.06,ESE,112,2.5,2.7,33,0.00,,---,0.00,VWS V14.01,2013-11-11 15:49:00,
2013-11-11 08:54:00,67.8,37.7,30.06,ESE,112,2.5,2.5,33,0.00,,---,0.00,VWS V14.01,2013-11-11 15:54:00,
2013-11-11 08:59:00,68.9,37.8,30.06,East,90,3.8,3.8,32,0.00,,---,0.00,VWS V14.01,2013-11-11 15:59:00,
2013-11-11 09:04:00,69.6,38.5,30.06,East,90,2.0,2.0,32,0.00,,---,0.00,VWS V14.01,2013-11-11 16:04:00,
2013-11-11 09:10:00,70.5,39.3,30.06,East,90,3.4,3.4,32,0.00,,---,0.00,VWS V14.01,2013-11-11 16:10:00,
2013-11-11 09:15:00,71.1,39.7,30.06,ESE,112,4.3,4.3,32,0.00,,---,0.00,VWS V14.01,2013-11-11 16:15:00,
2013-11-11 09:20:00,71.8,38.7,30.06,ENE,68,2.5,4.0,30,0.00,,---,0.00,VWS V14.01,2013-11-11 16:20:00,
2013-11-11 09:25:00,72.7,39.5,30.06,ENE,68,1.6,3.6,30,0.00,,---,0.00,VWS V14.01,2013-11-11 16:25:00,
2013-11-11 09:30:00,73.2,39.1,30.06,SE,135,4.7,4.7,29,0.00,,---,0.00,VWS V14.01,2013-11-11 16:30:00,
2013-11-11 09:35:00,73.9,39.7,30.03,ESE,112,2.9,3.1,29,0.00,,---,0.00,VWS V14.01,2013-11-11 16:35:00,
2013-11-11 09:40:00,74.7,39.4,30.03,ESE,112,2.9,3.1,28,0.00,,---,0.00,VWS V14.01,2013-11-11 16:40:00,
2013-11-11 09:45:00,75.2,39.0,30.03,ESE,112,3.4,3.4,27,0.00,,---,0.00,VWS V14.01,2013-11-11 16:45:00,
2013-11-11 09:50:00,75.9,39.6,30.03,ESE,112,2.5,2.5,27,0.00,,---,0.00,VWS V14.01,2013-11-11 16:50:00,
2013-11-11 09:55:00,76.6,40.2,30.03,ESE,112,3.6,3.6,27,0.00,,---,0.00,VWS V14.01,2013-11-11 16:55:00,
2013-11-11 10:00:00,77.0,39.5,30.03,SE,135,3.1,3.1,26,0.00,,---,0.00,VWS V14.01,2013-11-11 17:00:00,
2013-11-11 10:06:00,77.5,39.0,30.03,East,90,1.1,4.0,25,0.00,,---,0.00,VWS V14.01,2013-11-11 17:06:00,
2013-11-11 10:11:00,78.1,39.4,30.03,ESE,112,1.1,1.1,25,0.00,,---,0.00,VWS V14.01,2013-11-11 17:11:00,
2013-11-11 10:16:00,78.8,40.0,30.03,SE,135,2.9,2.9,25,0.00,,---,0.00,VWS V14.01,2013-11-11 17:16:00,
2013-11-11 10:21:00,79.3,40.5,30.03,East,90,2.2,2.9,25,0.00,,---,0.00,VWS V14.01,2013-11-11 17:21:00,
2013-11-11 10:26:00,79.9,39.9,30.03,SE,135,3.6,3.6,24,0.00,,---,0.00,VWS V14.01,2013-11-11 17:26:00,
2013-11-11 10:31:00,80.4,40.4,30.03,SW,225,2.0,2.0,24,0.00,,---,0.00,VWS V14.01,2013-11-11 17:31:00,
2013-11-11 10:36:00,80.4,39.3,30.03,SW,225,2.7,2.7,23,0.00,,---,0.00,VWS V14.01,2013-11-11 17:36:00,
2013-11-11 10:41:00,80.8,40.7,30.03,SSW,202,1.3,3.4,24,0.00,,---,0.00,VWS V14.01,2013-11-11 17:41:00,
2013-11-11 10:46:00,81.1,39.9,30.03,WSW,248,2.7,2.7,23,0.00,,---,0.00,VWS V14.01,2013-11-11 17:46:00,
2013-11-11 10:51:00,81.3,40.0,30.03,WSW,248,2.5,2.5,23,0.00,,---,0.00,VWS V14.01,2013-11-11 17:51:00,
2013-11-11 10:56:00,81.9,40.5,30.03,WSW,248,2.5,2.5,23,0.00,,---,0.00,VWS V14.01,2013-11-11 17:56:00,
2013-11-11 11:02:00,82.4,39.8,30.03,SSE,158,3.4,3.4,22,0.00,,---,0.00,VWS V14.01,2013-11-11 18:02:00,
2013-11-11 11:07:00,82.9,40.2,30.03,SSE,158,0.9,0.9,22,0.00,,---,0.00,VWS V14.01,2013-11-11 18:07:00,
2013-11-11 11:12:00,83.3,40.5,30.03,SSE,158,3.1,3.1,22,0.00,,---,0.00,VWS V14.01,2013-11-11 18:12:00,
2013-11-11 11:17:00,83.8,41.0,30.03,WSW,248,1.6,1.6,22,0.00,,---,0.00,VWS V14.01,2013-11-11 18:17:00,
2013-11-11 11:22:00,84.0,41.1,30.03,WSW,248,2.7,2.7,22,0.00,,---,0.00,VWS V14.01,2013-11-11 18:22:00,
2013-11-11 11:27:00,84.2,41.3,30.03,SW,225,1.3,2.5,22,0.00,,---,0.00,VWS V14.01,2013-11-11 18:27:00,
2013-11-11 11:32:00,84.2,40.1,30.03,West,270,3.6,3.6,21,0.00,,---,0.00,VWS V14.01,2013-11-11 18:32:00,
2013-11-11 11:37:00,84.4,40.2,30.00,WSW,248,2.5,2.5,21,0.00,,---,0.00,VWS V14.01,2013-11-11 18:37:00,
2013-11-11 11:42:00,84.4,40.2,30.00,WSW,248,2.5,2.5,21,0.00,,---,0.00,VWS V14.01,2013-11-11 18:42:00,
2013-11-11 11:47:00,84.9,40.7,30.00,WSW,248,2.7,2.7,21,0.00,,---,0.00,VWS V14.01,2013-11-11 18:47:00,
2013-11-11 11:52:00,85.1,40.8,30.00,WSW,248,3.4,3.4,21,0.00,,---,0.00,VWS V14.01,2013-11-11 18:52:00,
2013-11-11 11:57:00,85.5,41.1,30.00,SSW,202,0.0,0.0,21,0.00,,---,0.00,VWS V14.01,2013-11-11 18:57:00,
2013-11-11 12:03:00,85.6,40.0,30.00,WSW,248,2.0,2.0,20,0.00,,---,0.00,VWS V14.01,2013-11-11 19:03:00,
2013-11-11 12:08:00,85.8,41.4,30.00,WSW,248,0.0,0.0,21,0.00,,---,0.00,VWS V14.01,2013-11-11 19:08:00,
2013-11-11 12:13:00,86.2,40.5,30.00,SW,225,3.1,3.1,20,0.00,,---,0.00,VWS V14.01,2013-11-11 19:13:00,
2013-11-11 12:18:00,86.5,40.8,30.00,SW,225,3.8,3.8,20,0.00,,---,0.00,VWS V14.01,2013-11-11 19:18:00,
2013-11-11 12:23:00,86.7,40.9,30.00,West,270,4.5,4.5,20,0.00,,---,0.00,VWS V14.01,2013-11-11 19:23:00,
2013-11-11 12:28:00,86.9,41.0,30.00,SW,225,1.3,1.3,20,0.00,,---,0.00,VWS V14.01,2013-11-11 19:28:00,
2013-11-11 12:33:00,86.9,41.0,30.00,SW,225,2.5,2.5,20,0.00,,---,0.00,VWS V14.01,2013-11-11 19:33:00,
2013-11-11 12:38:00,87.1,41.2,29.97,WSW,248,2.0,4.9,20,0.00,,---,0.00,VWS V14.01,2013-11-11 19:38:00,
2013-11-11 12:43:00,87.3,41.3,29.97,West,270,2.9,2.9,20,0.00,,---,0.00,VWS V14.01,2013-11-11 19:43:00,
2013-11-11 12:48:00,87.3,40.0,29.97,WSW,248,4.0,4.0,19,0.00,,---,0.00,VWS V14.01,2013-11-11 19:48:00,
2013-11-11 12:53:00,87.1,39.9,29.97,WNW,292,3.4,3.4,19,0.00,,---,0.00,VWS V14.01,2013-11-11 19:53:00,
2013-11-11 12:59:00,87.1,39.9,29.97,WSW,248,5.4,5.4,19,0.00,,---,0.00,VWS V14.01,2013-11-11 19:59:00,
2013-11-11 13:04:00,87.3,40.0,29.97,West,270,1.6,1.6,19,0.00,,---,0.00,VWS V14.01,2013-11-11 20:04:00,
2013-11-11 13:09:00,87.1,39.9,29.97,West,270,1.6,1.6,19,0.00,,---,0.00,VWS V14.01,2013-11-11 20:09:00,
2013-11-11 13:14:00,87.3,40.0,29.97,WSW,248,4.3,4.3,19,0.00,,---,0.00,VWS V14.01,2013-11-11 20:14:00,
2013-11-11 13:19:00,87.3,40.0,29.94,WSW,248,2.0,6.0,19,0.00,,---,0.00,VWS V14.01,2013-11-11 20:19:00,
2013-11-11 13:24:00,87.3,40.0,29.94,WSW,248,3.6,3.6,19,0.00,,---,0.00,VWS V14.01,2013-11-11 20:24:00,
2013-11-11 13:29:00,87.3,40.0,29.94,SSW,202,3.1,3.1,19,0.00,,---,0.00,VWS V14.01,2013-11-11 20:29:00,
2013-11-11 13:34:00,87.3,40.0,29.94,WSW,248,3.1,3.1,19,0.00,,---,0.00,VWS V14.01,2013-11-11 20:34:00,
2013-11-11 13:39:00,87.4,40.2,29.94,WSW,248,1.3,1.3,19,0.00,,---,0.00,VWS V14.01,2013-11-11 20:39:00,
2013-11-11 13:44:00,87.6,40.3,29.94,SSW,202,2.7,2.7,19,0.00,,---,0.00,VWS V14.01,2013-11-11 20:44:00,
2013-11-11 13:50:00,87.6,40.3,29.94,SSW,202,1.3,1.3,19,0.00,,---,0.00,VWS V14.01,2013-11-11 20:50:00,
2013-11-11 13:55:00,87.8,40.5,29.94,West,270,1.6,1.6,19,0.00,,---,0.00,VWS V14.01,2013-11-11 20:55:00,
2013-11-11 14:00:00,87.8,40.5,29.94,WSW,248,2.5,2.5,19,0.00,,---,0.00,VWS V14.01,2013-11-11 21:00:00,
2013-11-11 14:05:00,87.8,40.5,29.94,WSW,248,4.3,4.3,19,0.00,,---,0.00,VWS V14.01,2013-11-11 21:05:00,
2013-11-11 14:10:00,87.8,40.5,29.94,WNW,292,2.0,2.2,19,0.00,,---,0.00,VWS V14.01,2013-11-11 21:10:00,
2013-11-11 14:15:00,87.8,40.5,29.94,NW,315,2.5,2.5,19,0.00,,---,0.00,VWS V14.01,2013-11-11 21:15:00,
2013-11-11 14:20:00,87.8,40.5,29.94,South,180,3.1,3.1,19,0.00,,---,0.00,VWS V14.01,2013-11-11 21:20:00,
2013-11-11 14:25:00,87.6,40.3,29.94,WSW,248,3.4,3.4,19,0.00,,---,0.00,VWS V14.01,2013-11-11 21:25:00,
2013-11-11 14:30:00,87.1,39.9,29.94,SW,225,4.3,4.3,19,0.00,,---,0.00,VWS V14.01,2013-11-11 21:30:00,
2013-11-11 14:35:00,87.1,39.9,29.94,WSW,248,7.2,7.2,19,0.00,,---,0.00,VWS V14.01,2013-11-11 21:35:00,
2013-11-11 14:40:00,87.1,39.9,29.94,WSW,248,4.0,4.9,19,0.00,,---,0.00,VWS V14.01,2013-11-11 21:40:00,
2013-11-11 14:45:00,87.3,40.0,29.94,WSW,248,7.2,7.2,19,0.00,,---,0.00,VWS V14.01,2013-11-11 21:45:00,
2013-11-11 14:51:00,87.3,40.0,29.94,SSW,202,4.0,4.0,19,0.00,,---,0.00,VWS V14.01,2013-11-11 21:51:00,
2013-11-11 14:56:00,87.3,40.0,29.94,WSW,248,4.3,4.3,19,0.00,,---,0.00,VWS V14.01,2013-11-11 21:56:00,
2013-11-11 15:01:00,87.3,40.0,29.94,West,270,3.8,3.8,19,0.00,,---,0.00,VWS V14.01,2013-11-11 22:01:00,
2013-11-11 15:06:00,87.4,40.2,29.94,SW,225,3.8,3.8,19,0.00,,---,0.00,VWS V14.01,2013-11-11 22:06:00,
2013-11-11 15:11:00,87.4,40.2,29.94,West,270,5.8,5.8,19,0.00,,---,0.00,VWS V14.01,2013-11-11 22:11:00,
2013-11-11 15:16:00,87.3,40.0,29.94,West,270,5.4,5.4,19,0.00,,---,0.00,VWS V14.01,2013-11-11 22:16:00,
2013-11-11 15:21:00,87.3,40.0,29.94,West,270,4.7,4.7,19,0.00,,---,0.00,VWS V14.01,2013-11-11 22:21:00,
2013-11-11 15:26:00,87.3,40.0,29.94,West,270,3.4,4.9,19,0.00,,---,0.00,VWS V14.01,2013-11-11 22:26:00,
2013-11-11 15:31:00,87.4,40.2,29.94,West,270,2.7,2.7,19,0.00,,---,0.00,VWS V14.01,2013-11-11 22:31:00,
2013-11-11 15:36:00,87.4,40.2,29.94,SSW,202,3.1,3.1,19,0.00,,---,0.00,VWS V14.01,2013-11-11 22:36:00,
2013-11-11 15:41:00,87.4,40.2,29.94,WNW,292,1.3,1.3,19,0.00,,---,0.00,VWS V14.01,2013-11-11 22:41:00,
2013-11-11 15:46:00,87.3,40.0,29.94,WSW,248,3.1,3.1,19,0.00,,---,0.00,VWS V14.01,2013-11-11 22:46:00,
2013-11-11 15:51:00,87.1,39.9,29.94,SW,225,3.8,3.8,19,0.00,,---,0.00,VWS V14.01,2013-11-11 22:51:00,
2013-11-11 15:57:00,87.1,39.9,29.94,WSW,248,2.5,3.4,19,0.00,,---,0.00,VWS V14.01,2013-11-11 22:57:00,
2013-11-11 16:02:00,86.7,39.6,29.94,West,270,3.8,3.8,19,0.00,,---,0.00,VWS V14.01,2013-11-11 23:02:00,
2013-11-11 16:07:00,86.4,39.3,29.94,WSW,248,4.3,4.3,19,0.00,,---,0.00,VWS V14.01,2013-11-11 23:07:00,
2013-11-11 16:12:00,86.2,39.1,29.94,WSW,248,2.7,3.6,19,0.00,,---,0.00,VWS V14.01,2013-11-11 23:12:00,
2013-11-11 16:17:00,86.0,39.0,29.94,SW,225,3.1,3.1,19,0.00,,---,0.00,VWS V14.01,2013-11-11 23:17:00,
2013-11-11 16:22:00,85.8,38.8,29.94,WSW,248,3.6,3.6,19,0.00,,---,0.00,VWS V14.01,2013-11-11 23:22:00,
2013-11-11 16:27:00,85.3,38.4,29.94,SW,225,5.8,5.8,19,0.00,,---,0.00,VWS V14.01,2013-11-11 23:27:00,
2013-11-11 16:32:00,84.7,38.0,29.94,WSW,248,2.0,2.0,19,0.00,,---,0.00,VWS V14.01,2013-11-11 23:32:00,
2013-11-11 16:37:00,84.2,37.5,29.94,West,270,2.9,2.9,19,0.00,,---,0.00,VWS V14.01,2013-11-11 23:37:00,
2013-11-11 16:42:00,83.7,37.1,29.94,WSW,248,3.8,3.8,19,0.00,,---,0.00,VWS V14.01,2013-11-11 23:42:00,
2013-11-11 16:47:00,83.1,36.6,29.94,SW,225,2.5,4.0,19,0.00,,---,0.00,VWS V14.01,2013-11-11 23:47:00,
2013-11-11 16:52:00,82.8,36.3,29.94,WSW,248,4.3,4.3,19,0.00,,---,0.00,VWS V14.01,2013-11-11 23:52:00,
2013-11-11 16:58:00,82.0,37.0,29.94,WNW,292,2.9,5.8,20,0.00,,---,0.00,VWS V14.01,2013-11-11 23:58:00,
2013-11-11 17:03:00,81.3,36.5,29.94,WSW,248,3.1,3.1,20,0.00,,---,0.00,VWS V14.01,2013-11-12 00:03:00,
2013-11-11 17:08:00,80.8,36.0,29.97,West,270,2.2,2.9,20,0.00,,---,0.00,VWS V14.01,2013-11-12 00:08:00,
2013-11-11 17:13:00,80.1,36.7,29.97,NW,315,2.9,2.9,21,0.00,,---,0.00,VWS V14.01,2013-11-12 00:13:00,
2013-11-11 17:18:00,79.7,36.3,29.97,NW,315,2.9,2.9,21,0.00,,---,0.00,VWS V14.01,2013-11-12 00:18:00,
2013-11-11 17:23:00,79.2,35.9,29.97,West,270,2.7,2.9,21,0.00,,---,0.00,VWS V14.01,2013-11-12 00:23:00,
2013-11-11 17:28:00,78.6,35.5,29.97,West,270,3.1,3.6,21,0.00,,---,0.00,VWS V14.01,2013-11-12 00:28:00,
2013-11-11 17:33:00,78.3,35.2,29.97,WSW,248,3.1,3.1,21,0.00,,---,0.00,VWS V14.01,2013-11-12 00:33:00,
2013-11-11 17:38:00,77.9,34.9,29.97,SW,225,1.3,2.5,21,0.00,,---,0.00,VWS V14.01,2013-11-12 00:38:00,
2013-11-11 17:43:00,77.4,34.4,29.97,WNW,292,1.3,2.5,21,0.00,,---,0.00,VWS V14.01,2013-11-12 00:43:00,
2013-11-11 17:48:00,76.8,34.0,29.97,NNE,22,3.4,3.4,21,0.00,,---,0.00,VWS V14.01,2013-11-12 00:48:00,
2013-11-11 17:53:00,76.3,33.5,29.97,WSW,248,4.7,4.7,21,0.00,,---,0.00,VWS V14.01,2013-11-12 00:53:00,
2013-11-11 17:58:00,75.9,33.2,29.97,WSW,248,0.0,0.0,21,0.00,,---,0.00,VWS V14.01,2013-11-12 00:58:00,
2013-11-11 18:03:00,75.4,32.8,29.97,SE,135,3.4,3.4,21,0.00,,---,0.00,VWS V14.01,2013-11-12 01:03:00,
2013-11-11 18:08:00,74.7,33.3,29.97,ESE,112,1.3,1.3,22,0.00,,---,0.00,VWS V14.01,2013-11-12 01:08:00,
2013-11-11 18:14:00,74.1,32.9,29.97,SE,135,0.0,0.0,22,0.00,,---,0.00,VWS V14.01,2013-11-12 01:14:00,
2013-11-11 18:19:00,73.6,32.4,29.97,ESE,112,2.5,2.5,22,0.00,,---,0.00,VWS V14.01,2013-11-12 01:19:00,
2013-11-11 18:24:00,72.9,31.8,29.97,SE,135,0.0,0.0,22,0.00,,---,0.00,VWS V14.01,2013-11-12 01:24:00,
2013-11-11 18:29:00,72.5,32.6,29.97,North,0,1.1,1.3,23,0.00,,---,0.00,VWS V14.01,2013-11-12 01:29:00,
2013-11-11 18:34:00,72.3,32.5,29.97,North,0,0.0,0.0,23,0.00,,---,0.00,VWS V14.01,2013-11-12 01:34:00,
2013-11-11 18:39:00,72.3,32.5,29.97,North,0,2.0,2.0,23,0.00,,---,0.00,VWS V14.01,2013-11-12 01:39:00,
2013-11-11 18:44:00,72.5,32.6,29.97,North,0,2.0,2.0,23,0.00,,---,0.00,VWS V14.01,2013-11-12 01:44:00,
2013-11-11 18:49:00,72.5,32.6,30.00,NNW,338,2.0,2.0,23,0.00,,---,0.00,VWS V14.01,2013-11-12 01:49:00,
2013-11-11 18:54:00,72.1,32.3,30.00,NNW,338,0.9,0.9,23,0.00,,---,0.00,VWS V14.01,2013-11-12 01:54:00,
2013-11-11 18:59:00,71.8,32.0,30.00,East,90,1.6,1.6,23,0.00,,---,0.00,VWS V14.01,2013-11-12 01:59:00,
2013-11-11 19:04:00,71.6,31.9,30.00,ENE,68,1.1,1.1,23,0.00,,---,0.00,VWS V14.01,2013-11-12 02:04:00,
2013-11-11 19:10:00,71.2,32.6,30.00,North,0,1.3,1.3,24,0.00,,---,0.00,VWS V14.01,2013-11-12 02:10:00,
2013-11-11 19:15:00,70.9,32.3,30.00,NW,315,0.9,1.3,24,0.00,,---,0.00,VWS V14.01,2013-11-12 02:15:00,
2013-11-11 19:20:00,70.7,32.2,30.00,NNW,338,0.0,0.9,24,0.00,,---,0.00,VWS V14.01,2013-11-12 02:20:00,
2013-11-11 19:25:00,70.5,32.0,30.00,NNW,338,0.0,0.0,24,0.00,,---,0.00,VWS V14.01,2013-11-12 02:25:00,
2013-11-11 19:30:00,70.0,31.6,30.00,NNW,338,0.0,0.0,24,0.00,,---,0.00,VWS V14.01,2013-11-12 02:30:00,
2013-11-11 19:35:00,69.6,31.3,30.00,NNW,338,0.0,0.0,24,0.00,,---,0.00,VWS V14.01,2013-11-12 02:35:00,
2013-11-11 19:40:00,69.1,30.8,30.00,NE,45,0.0,0.0,24,0.00,,---,0.00,VWS V14.01,2013-11-12 02:40:00,
2013-11-11 19:45:00,68.5,30.4,30.00,East,90,0.0,0.0,24,0.00,,---,0.00,VWS V14.01,2013-11-12 02:45:00,
2013-11-11 19:50:00,68.4,31.2,30.00,NE,45,1.3,1.3,25,0.00,,---,0.00,VWS V14.01,2013-11-12 02:50:00,
2013-11-11 19:55:00,68.9,31.7,30.00,North,0,1.1,1.1,25,0.00,,---,0.00,VWS V14.01,2013-11-12 02:55:00,
2013-11-11 20:00:00,68.9,30.6,30.00,NE,45,0.9,1.3,24,0.00,,---,0.00,VWS V14.01,2013-11-12 03:00:00,
2013-11-11 20:05:00,68.7,30.5,30.00,NE,45,0.0,0.0,24,0.00,,---,0.00,VWS V14.01,2013-11-12 03:05:00,
2013-11-11 20:11:00,68.5,30.4,30.00,NW,315,1.3,1.6,24,0.00,,---,0.00,VWS V14.01,2013-11-12 03:11:00,
2013-11-11 20:16:00,68.5,31.4,30.00,NNW,338,2.0,2.0,25,0.00,,---,0.00,VWS V14.01,2013-11-12 03:16:00,
2013-11-11 20:21:00,68.7,31.5,30.00,NW,315,2.2,2.2,25,0.00,,---,0.00,VWS V14.01,2013-11-12 03:21:00,
2013-11-11 20:26:00,69.3,32.0,30.00,North,0,2.5,3.1,25,0.00,,---,0.00,VWS V14.01,2013-11-12 03:26:00,
2013-11-11 20:31:00,69.8,31.4,30.00,North,0,2.0,2.0,24,0.00,,---,0.00,VWS V14.01,2013-11-12 03:31:00,
2013-11-11 20:36:00,70.2,31.7,30.00,NW,315,2.2,2.7,24,0.00,,---,0.00,VWS V14.01,2013-11-12 03:36:00,
2013-11-11 20:41:00,70.5,32.0,30.00,NNW,338,1.3,2.2,24,0.00,,---,0.00,VWS V14.01,2013-11-12 03:41:00,
2013-11-11 20:46:00,70.7,32.2,30.00,NNW,338,3.4,3.4,24,0.00,,---,0.00,VWS V14.01,2013-11-12 03:46:00,
2013-11-11 20:51:00,70.7,32.2,30.00,NNW,338,2.0,2.0,24,0.00,,---,0.00,VWS V14.01,2013-11-12 03:51:00,
2013-11-11 20:56:00,70.5,32.0,30.00,NNE,22,1.6,2.5,24,0.00,,---,0.00,VWS V14.01,2013-11-12 03:56:00,
2013-11-11 21:01:00,70.5,32.0,30.00,NNE,22,1.3,2.7,24,0.00,,---,0.00,VWS V14.01,2013-11-12 04:01:00,
2013-11-11 21:06:00,70.7,32.2,30.00,NNW,338,2.7,2.7,24,0.00,,---,0.00,VWS V14.01,2013-11-12 04:06:00,
2013-11-11 21:11:00,70.9,32.3,30.00,NNW,338,2.2,2.2,24,0.00,,---,0.00,VWS V14.01,2013-11-12 04:11:00,
2013-11-11 21:16:00,70.7,32.2,30.00,NNW,338,1.1,1.1,24,0.00,,---,0.00,VWS V14.01,2013-11-12 04:16:00,
2013-11-11 21:21:00,70.7,32.2,30.03,North,0,1.1,1.6,24,0.00,,---,0.00,VWS V14.01,2013-11-12 04:21:00,
2013-11-11 21:26:00,70.7,32.2,30.03,NNW,338,1.1,1.1,24,0.00,,---,0.00,VWS V14.01,2013-11-12 04:26:00,
2013-11-11 21:31:00,70.7,32.2,30.03,North,0,2.2,2.2,24,0.00,,---,0.00,VWS V14.01,2013-11-12 04:31:00,
2013-11-11 21:36:00,70.7,32.2,30.03,North,0,2.0,2.0,24,0.00,,---,0.00,VWS V14.01,2013-11-12 04:36:00,
2013-11-11 21:41:00,70.5,32.0,30.03,NNE,22,0.9,1.6,24,0.00,,---,0.00,VWS V14.01,2013-11-12 04:41:00,
2013-11-11 21:46:00,70.3,31.9,30.03,NW,315,4.3,4.3,24,0.00,,---,0.00,VWS V14.01,2013-11-12 04:46:00,
2013-11-11 21:51:00,70.2,31.7,30.03,North,0,1.6,1.6,24,0.00,,---,0.00,VWS V14.01,2013-11-12 04:51:00,
2013-11-11 21:56:00,70.0,31.6,30.03,North,0,0.0,0.0,24,0.00,,---,0.00,VWS V14.01,2013-11-12 04:56:00,
2013-11-11 22:01:00,69.3,31.0,30.03,NNW,338,1.1,1.1,24,0.00,,---,0.00,VWS V14.01,2013-11-12 05:01:00,
2013-11-11 22:04:00,68.9,30.6,30.06,North,0,1.1,1.3,24,0.00,,---,0.00,VWS V14.01,2013-11-12 05:04:00,
2013-11-11 22:09:00,68.4,30.2,30.06,NNW,338,0.0,1.6,24,0.00,,---,0.00,VWS V14.01,2013-11-12 05:09:00,
2013-11-11 22:14:00,67.6,29.6,30.06,SW,225,0.9,0.9,24,0.00,,---,0.00,VWS V14.01,2013-11-12 05:14:00,
2013-11-11 22:19:00,67.3,29.3,30.06,WSW,248,0.0,0.0,24,0.00,,---,0.00,VWS V14.01,2013-11-12 05:19:00,
2013-11-11 22:24:00,66.7,28.8,30.06,SW,225,0.0,0.0,24,0.00,,---,0.00,VWS V14.01,2013-11-12 05:24:00,
2013-11-11 22:30:00,66.6,29.7,30.06,SW,225,0.0,0.0,25,0.00,,---,0.00,VWS V14.01,2013-11-12 05:30:00,
2013-11-11 22:35:00,65.7,28.9,30.06,ESE,112,1.1,2.0,25,0.00,,---,0.00,VWS V14.01,2013-11-12 05:35:00,
2013-11-11 22:40:00,65.1,28.5,30.06,East,90,0.0,0.0,25,0.00,,---,0.00,VWS V14.01,2013-11-12 05:40:00,
2013-11-11 22:45:00,64.9,28.3,30.06,NNW,338,2.0,2.5,25,0.00,,---,0.00,VWS V14.01,2013-11-12 05:45:00,
2013-11-11 22:50:00,64.9,28.3,30.06,NNW,338,0.0,0.0,25,0.00,,---,0.00,VWS V14.01,2013-11-12 05:50:00,
2013-11-11 22:55:00,64.8,28.1,30.06,NNW,338,0.0,0.0,25,0.00,,---,0.00,VWS V14.01,2013-11-12 05:55:00,
2013-11-11 23:00:00,64.6,28.0,30.06,NNW,338,0.0,0.0,25,0.00,,---,0.00,VWS V14.01,2013-11-12 06:00:00,
2013-11-11 23:05:00,65.3,29.6,30.06,NNW,338,0.0,0.9,26,0.00,,---,0.00,VWS V14.01,2013-11-12 06:05:00,
2013-11-11 23:10:00,65.3,29.6,30.06,NNW,338,0.0,0.0,26,0.00,,---,0.00,VWS V14.01,2013-11-12 06:10:00,
2013-11-11 23:15:00,65.1,29.4,30.06,NNW,338,0.0,0.0,26,0.00,,---,0.00,VWS V14.01,2013-11-12 06:15:00,
2013-11-11 23:21:00,64.8,29.1,30.06,NNE,22,1.1,2.0,26,0.00,,---,0.00,VWS V14.01,2013-11-12 06:21:00,
2013-11-11 23:26:00,65.1,29.4,30.06,NNW,338,0.0,0.0,26,0.00,,---,0.00,VWS V14.01,2013-11-12 06:26:00,
2013-11-11 23:31:00,64.6,29.0,30.06,North,0,1.3,1.3,26,0.00,,---,0.00,VWS V14.01,2013-11-12 06:31:00,
2013-11-11 23:36:00,64.4,28.8,30.06,North,0,0.0,0.0,26,0.00,,---,0.00,VWS V14.01,2013-11-12 06:36:00,
2013-11-11 23:41:00,63.9,28.3,30.06,North,0,0.0,0.0,26,0.00,,---,0.00,VWS V14.01,2013-11-12 06:41:00,
2013-11-11 23:46:00,63.3,28.8,30.06,NNE,22,1.3,2.0,27,0.00,,---,0.00,VWS V14.01,2013-11-12 06:46:00,
2013-11-11 23:51:00,63.0,27.6,30.06,NW,315,0.0,0.0,26,0.00,,---,0.00,VWS V14.01,2013-11-12 06:51:00,
2013-11-11 23:56:00,62.8,28.3,30.06,WNW,292,0.0,0.0,27,0.00,,---,0.00,VWS V14.01,2013-11-12 06:56:00,